Ship Status Report: callsign YQNP

sailwx.info

Track history (hours):
 
Tides and Currents Weather Stations Pressure Air Temp Water Temp Dewpoint Dewpoint Depression Visibility Wind Speed Wind Dir Waves Ship Positions

Callsign YQNP (name unknown)

Last reported at 2018-Jan-08 21:33 UTC. Time now 2018-Jan-18 06:10 UTC.
Position N 44°09' E 028°40'.
Warning: this ship's position is 9 days out of date.

Date/timePositionNaut miles runAvg speedWind from/ knotsBaromVisibWave heightAir tempDewpointWater temp
2018-Jan-08 21:33N 44°09' E 028°40'0 0.0
2018-Jan-08 21:31N 44°09' E 028°40'  
2018-Jan-01 08:31N 44°08' E 028°41'918.0
2018-Jan-01 08:01N 43°60' E 028°46'1121.6
2018-Jan-01 07:31N 43°49' E 028°49'3 5.0
2018-Jan-01 07:01N 43°49' E 028°45'5 5.2
2018-Jan-01 06:00N 43°47' E 028°52'2 4.4
2018-Jan-01 05:31N 43°49' E 028°52'510.3
2018-Jan-01 05:01N 43°47' E 028°45'7 6.9
2018-Jan-01 04:01N 43°46' E 028°54'4 8.5
2018-Jan-01 03:30N 43°49' E 028°51'5 9.3
2018-Jan-01 03:00N 43°49' E 028°44'4 7.3
2018-Jan-01 02:31N 43°47' E 028°48'4 8.6
2018-Jan-01 02:00N 43°45' E 028°54'0 0.8
2018-Jan-01 01:30N 43°45' E 028°54'1010.4
2018-Jan-01 00:31N 43°47' E 028°40'4 0.3
2017-Dec-31 11:26N 43°48' E 028°35'4 9.5
2017-Dec-31 10:59N 43°48' E 028°41'2 3.3
2017-Dec-31 10:31N 43°48' E 028°39'2 1.1
2017-Dec-31 08:19N 43°48' E 028°35'0 0.0
2017-Dec-31 07:49N 43°48' E 028°35'0 0.0
2017-Dec-31 07:29N 43°48' E 028°35'0 0.0
2017-Dec-31 06:48N 43°48' E 028°35'0 0.0
2017-Dec-31 06:29N 43°48' E 028°35'0 0.0
2017-Dec-31 01:17N 43°48' E 028°35'3 8.0
2017-Dec-31 00:53N 43°50' E 028°39'410.0
2017-Dec-31 00:30N 43°54' E 028°41'510.7
2017-Dec-31 00:01N 43°59' E 028°43'510.6
2017-Dec-30 23:31N 44°04' E 028°43'2 3.7
2017-Dec-30 23:01N 44°05' E 028°41'0 0.0
2017-Dec-30 22:31N 44°05' E 028°41'0 0.0
2017-Dec-30 22:00N 44°05' E 028°41'0 0.0
2017-Dec-30 21:31N 44°05' E 028°41'0 0.0
2017-Dec-30 21:01N 44°05' E 028°41'0 0.0
2017-Dec-30 20:31N 44°05' E 028°41'0 0.0
2017-Dec-30 20:01N 44°06' E 028°41'0 0.0
2017-Dec-30 19:30N 44°06' E 028°41'0 0.0
2017-Dec-30 19:01N 44°05' E 028°41'0 0.0
2017-Dec-30 18:31N 44°06' E 028°41'2 0.2
2017-Dec-30 08:06N 44°08' E 028°41'110.6
2017-Dec-30 08:00N 44°09' E 028°40'1 1.7
2017-Dec-30 07:30N 44°09' E 028°40'0 0.0
2017-Dec-30 07:00N 44°09' E 028°40'  
Track history (hours):
 
Tides and Currents Weather Stations Pressure Air Temp Water Temp Dewpoint Dewpoint Depression Visibility Wind Speed Wind Dir Waves Ship Positions

Callsign YQNP (name unknown)

Last reported at 2018-Jan-08 21:33 UTC. Time now 2018-Jan-18 06:10 UTC.
Position N 44°09' E 028°40'.
Warning: this ship's position is 9 days out of date.

Date/timePositionNaut miles runAvg speedWind from/ knotsBaromVisibWave heightAir tempDewpointWater temp
2018-Jan-08 21:33N 44°09' E 028°40'0 0.0
2018-Jan-08 21:31N 44°09' E 028°40'  
2018-Jan-01 08:31N 44°08' E 028°41'918.0
2018-Jan-01 08:01N 43°60' E 028°46'1121.6
2018-Jan-01 07:31N 43°49' E 028°49'3 5.0
2018-Jan-01 07:01N 43°49' E 028°45'5 5.2
2018-Jan-01 06:00N 43°47' E 028°52'2 4.4
2018-Jan-01 05:31N 43°49' E 028°52'510.3
2018-Jan-01 05:01N 43°47' E 028°45'7 6.9
2018-Jan-01 04:01N 43°46' E 028°54'4 8.5
2018-Jan-01 03:30N 43°49' E 028°51'5 9.3
2018-Jan-01 03:00N 43°49' E 028°44'4 7.3
2018-Jan-01 02:31N 43°47' E 028°48'4 8.6
2018-Jan-01 02:00N 43°45' E 028°54'0 0.8
2018-Jan-01 01:30N 43°45' E 028°54'1010.4
2018-Jan-01 00:31N 43°47' E 028°40'4 0.3
2017-Dec-31 11:26N 43°48' E 028°35'4 9.5
2017-Dec-31 10:59N 43°48' E 028°41'2 3.3
2017-Dec-31 10:31N 43°48' E 028°39'2 1.1
2017-Dec-31 08:19N 43°48' E 028°35'0 0.0
2017-Dec-31 07:49N 43°48' E 028°35'0 0.0
2017-Dec-31 07:29N 43°48' E 028°35'0 0.0
2017-Dec-31 06:48N 43°48' E 028°35'0 0.0
2017-Dec-31 06:29N 43°48' E 028°35'0 0.0
2017-Dec-31 01:17N 43°48' E 028°35'3 8.0
2017-Dec-31 00:53N 43°50' E 028°39'410.0
2017-Dec-31 00:30N 43°54' E 028°41'510.7
2017-Dec-31 00:01N 43°59' E 028°43'510.6
2017-Dec-30 23:31N 44°04' E 028°43'2 3.7
2017-Dec-30 23:01N 44°05' E 028°41'0 0.0
2017-Dec-30 22:31N 44°05' E 028°41'0 0.0
2017-Dec-30 22:00N 44°05' E 028°41'0 0.0
2017-Dec-30 21:31N 44°05' E 028°41'0 0.0
2017-Dec-30 21:01N 44°05' E 028°41'0 0.0
2017-Dec-30 20:31N 44°05' E 028°41'0 0.0
2017-Dec-30 20:01N 44°06' E 028°41'0 0.0
2017-Dec-30 19:30N 44°06' E 028°41'0 0.0
2017-Dec-30 19:01N 44°05' E 028°41'0 0.0
2017-Dec-30 18:31N 44°06' E 028°41'2 0.2
2017-Dec-30 08:06N 44°08' E 028°41'110.6
2017-Dec-30 08:00N 44°09' E 028°40'1 1.7
2017-Dec-30 07:30N 44°09' E 028°40'0 0.0
2017-Dec-30 07:00N 44°09' E 028°40'  

Dump ship's entire track history